sensor_id;sensor_type;location;lat;lon;timestamp;pressure;altitude;pressure_sealevel;temperature;humidity
10366;BME280;5229;41.820;23.490;2023-03-11T00:01:05;88375.66;;;11.40;69.34
10366;BME280;5229;41.820;23.490;2023-03-11T00:03:32;88385.34;;;11.43;69.48
10366;BME280;5229;41.820;23.490;2023-03-11T00:06:00;88393.53;;;11.45;68.64
10366;BME280;5229;41.820;23.490;2023-03-11T00:08:27;88399.94;;;11.51;68.79
10366;BME280;5229;41.820;23.490;2023-03-11T00:10:55;88383.25;;;11.52;68.83
10366;BME280;5229;41.820;23.490;2023-03-11T00:13:23;88384.38;;;11.51;69.32
10366;BME280;5229;41.820;23.490;2023-03-11T00:15:52;88377.38;;;11.55;68.69
10366;BME280;5229;41.820;23.490;2023-03-11T00:18:22;88357.34;;;11.56;68.89
10366;BME280;5229;41.820;23.490;2023-03-11T00:20:53;88351.44;;;11.55;68.52
10366;BME280;5229;41.820;23.490;2023-03-11T00:23:21;88345.53;;;11.58;68.24
10366;BME280;5229;41.820;23.490;2023-03-11T00:25:49;88356.66;;;11.59;69.30
10366;BME280;5229;41.820;23.490;2023-03-11T00:28:17;88352.91;;;11.56;68.89
10366;BME280;5229;41.820;23.490;2023-03-11T00:30:45;88367.69;;;11.52;68.95
10366;BME280;5229;41.820;23.490;2023-03-11T00:33:14;88365.78;;;11.49;69.75
10366;BME280;5229;41.820;23.490;2023-03-11T00:35:42;88372.81;;;11.49;69.29
10366;BME280;5229;41.820;23.490;2023-03-11T00:38:12;88390.63;;;11.50;69.05
10366;BME280;5229;41.820;23.490;2023-03-11T00:40:40;88411.06;;;11.52;69.57
10366;BME280;5229;41.820;23.490;2023-03-11T00:43:07;88412.16;;;11.51;69.26
10366;BME280;5229;41.820;23.490;2023-03-11T00:45:34;88404.72;;;11.49;69.08
10366;BME280;5229;41.820;23.490;2023-03-11T00:48:00;88418.81;;;11.48;68.91
10366;BME280;5229;41.820;23.490;2023-03-11T00:50:29;88423.19;;;11.44;68.80
10366;BME280;5229;41.820;23.490;2023-03-11T00:52:58;88411.59;;;11.38;70.09
10366;BME280;5229;41.820;23.490;2023-03-11T00:55:27;88424.16;;;11.36;69.35
10366;BME280;5229;41.820;23.490;2023-03-11T00:57:56;88425.22;;;11.32;69.58
10366;BME280;5229;41.820;23.490;2023-03-11T01:00:25;88410.25;;;11.25;70.56
10366;BME280;5229;41.820;23.490;2023-03-11T01:02:53;88412.47;;;11.23;69.79
10366;BME280;5229;41.820;23.490;2023-03-11T01:05:21;88405.41;;;11.24;70.26
10366;BME280;5229;41.820;23.490;2023-03-11T01:07:49;88394.69;;;11.25;70.28
10366;BME280;5229;41.820;23.490;2023-03-11T01:10:17;88380.63;;;11.26;70.44
10366;BME280;5229;41.820;23.490;2023-03-11T01:12:44;88371.00;;;11.27;69.55
10366;BME280;5229;41.820;23.490;2023-03-11T01:15:17;88371.34;;;11.25;69.67
10366;BME280;5229;41.820;23.490;2023-03-11T01:17:44;88365.00;;;11.23;69.37
10366;BME280;5229;41.820;23.490;2023-03-11T01:20:12;88362.72;;;11.18;69.93
10366;BME280;5229;41.820;23.490;2023-03-11T01:22:39;88358.22;;;11.15;69.28
10366;BME280;5229;41.820;23.490;2023-03-11T01:25:07;88352.94;;;11.11;69.08
10366;BME280;5229;41.820;23.490;2023-03-11T01:27:36;88349.25;;;11.12;69.67
10366;BME280;5229;41.820;23.490;2023-03-11T01:30:03;88353.72;;;11.12;68.98
10366;BME280;5229;41.820;23.490;2023-03-11T01:32:30;88350.69;;;11.10;69.27
10366;BME280;5229;41.820;23.490;2023-03-11T01:34:57;88351.75;;;11.05;69.62
10366;BME280;5229;41.820;23.490;2023-03-11T01:37:24;88358.72;;;11.01;69.38
10366;BME280;5229;41.820;23.490;2023-03-11T01:39:50;88344.94;;;10.97;69.12
10366;BME280;5229;41.820;23.490;2023-03-11T01:42:17;88343.00;;;10.91;68.91
10366;BME280;5229;41.820;23.490;2023-03-11T01:44:45;88345.47;;;10.84;69.14
10366;BME280;5229;41.820;23.490;2023-03-11T01:47:36;88339.81;;;10.78;69.86
10366;BME280;5229;41.820;23.490;2023-03-11T01:50:06;88329.09;;;10.80;70.19
10366;BME280;5229;41.820;23.490;2023-03-11T01:52:34;88328.00;;;10.81;69.90
10366;BME280;5229;41.820;23.490;2023-03-11T01:55:01;88337.25;;;10.82;69.79
10366;BME280;5229;41.820;23.490;2023-03-11T01:57:30;88343.56;;;10.81;68.96
10366;BME280;5229;41.820;23.490;2023-03-11T01:59:59;88316.88;;;10.80;69.34
10366;BME280;5229;41.820;23.490;2023-03-11T02:02:33;88312.78;;;10.79;68.94
10366;BME280;5229;41.820;23.490;2023-03-11T02:05:02;88307.91;;;10.74;69.22
10366;BME280;5229;41.820;23.490;2023-03-11T02:07:29;88278.16;;;10.68;69.66
10366;BME280;5229;41.820;23.490;2023-03-11T02:09:55;88265.56;;;10.67;69.01
10366;BME280;5229;41.820;23.490;2023-03-11T02:12:22;88272.19;;;10.64;69.88
10366;BME280;5229;41.820;23.490;2023-03-11T02:14:51;88264.78;;;10.66;70.00
10366;BME280;5229;41.820;23.490;2023-03-11T02:17:20;88266.31;;;10.67;69.51
10366;BME280;5229;41.820;23.490;2023-03-11T02:19:56;88268.56;;;10.69;69.51
10366;BME280;5229;41.820;23.490;2023-03-11T02:22:25;88276.69;;;10.67;69.06
10366;BME280;5229;41.820;23.490;2023-03-11T02:24:59;88275.88;;;10.63;69.02
10366;BME280;5229;41.820;23.490;2023-03-11T02:27:30;88272.09;;;10.61;69.33
10366;BME280;5229;41.820;23.490;2023-03-11T02:29:58;88275.75;;;10.56;69.34
10366;BME280;5229;41.820;23.490;2023-03-11T02:32:26;88283.19;;;10.58;69.45
10366;BME280;5229;41.820;23.490;2023-03-11T02:34:54;88283.13;;;10.54;68.88
10366;BME280;5229;41.820;23.490;2023-03-11T02:37:20;88281.22;;;10.51;68.62
10366;BME280;5229;41.820;23.490;2023-03-11T02:39:49;88280.06;;;10.49;69.30
10366;BME280;5229;41.820;23.490;2023-03-11T02:42:18;88278.97;;;10.50;69.46
10366;BME280;5229;41.820;23.490;2023-03-11T02:44:56;88277.88;;;10.51;69.27
10366;BME280;5229;41.820;23.490;2023-03-11T02:47:24;88283.41;;;10.49;69.12
10366;BME280;5229;41.820;23.490;2023-03-11T02:49:53;88275.16;;;10.44;69.05
10366;BME280;5229;41.820;23.490;2023-03-11T02:52:21;88265.84;;;10.39;69.71
10366;BME280;5229;41.820;23.490;2023-03-11T02:54:48;88271.63;;;10.33;68.85
10366;BME280;5229;41.820;23.490;2023-03-11T02:57:15;88259.72;;;10.28;68.67
10366;BME280;5229;41.820;23.490;2023-03-11T02:59:42;88263.34;;;10.24;69.29
10366;BME280;5229;41.820;23.490;2023-03-11T03:02:10;88257.34;;;10.20;69.35
10366;BME280;5229;41.820;23.490;2023-03-11T03:04:37;88258.38;;;10.15;69.35
10366;BME280;5229;41.820;23.490;2023-03-11T03:07:04;88265.72;;;10.13;69.51
10366;BME280;5229;41.820;23.490;2023-03-11T03:09:31;88271.28;;;10.12;69.38
10366;BME280;5229;41.820;23.490;2023-03-11T03:11:58;88292.66;;;10.09;69.27
10366;BME280;5229;41.820;23.490;2023-03-11T03:14:25;88305.19;;;10.07;69.94
10366;BME280;5229;41.820;23.490;2023-03-11T03:16:52;88303.03;;;10.09;69.58
10366;BME280;5229;41.820;23.490;2023-03-11T03:19:20;88318.91;;;10.07;69.44
10366;BME280;5229;41.820;23.490;2023-03-11T03:21:47;88322.97;;;10.08;69.83
10366;BME280;5229;41.820;23.490;2023-03-11T03:24:14;88316.03;;;10.12;69.70
10366;BME280;5229;41.820;23.490;2023-03-11T03:26:40;88313.19;;;10.17;69.68
10366;BME280;5229;41.820;23.490;2023-03-11T03:29:07;88301.03;;;10.21;69.17
10366;BME280;5229;41.820;23.490;2023-03-11T03:31:34;88302.94;;;10.24;68.84
10366;BME280;5229;41.820;23.490;2023-03-11T03:34:01;88315.91;;;10.24;69.04
10366;BME280;5229;41.820;23.490;2023-03-11T03:36:29;88321.34;;;10.19;68.70
10366;BME280;5229;41.820;23.490;2023-03-11T03:38:56;88321.63;;;10.14;68.75
10366;BME280;5229;41.820;23.490;2023-03-11T03:41:23;88320.09;;;10.13;69.32
10366;BME280;5229;41.820;23.490;2023-03-11T03:43:51;88321.53;;;10.11;69.39
10366;BME280;5229;41.820;23.490;2023-03-11T03:46:19;88324.47;;;10.09;69.25
10366;BME280;5229;41.820;23.490;2023-03-11T03:48:46;88327.41;;;10.08;68.79
10366;BME280;5229;41.820;23.490;2023-03-11T03:51:13;88326.22;;;10.05;69.50
10366;BME280;5229;41.820;23.490;2023-03-11T03:53:42;88334.81;;;10.09;69.04
10366;BME280;5229;41.820;23.490;2023-03-11T03:56:12;88328.59;;;10.10;68.71
10366;BME280;5229;41.820;23.490;2023-03-11T03:58:40;88328.91;;;10.09;68.73
10366;BME280;5229;41.820;23.490;2023-03-11T04:01:07;88343.34;;;10.10;69.02
10366;BME280;5229;41.820;23.490;2023-03-11T04:03:34;88337.41;;;10.09;69.00
10366;BME280;5229;41.820;23.490;2023-03-11T04:06:07;88338.94;;;10.10;68.76
10366;BME280;5229;41.820;23.490;2023-03-11T04:08:35;88337.16;;;10.14;68.61
10366;BME280;5229;41.820;23.490;2023-03-11T04:11:03;88333.13;;;10.17;68.10
10366;BME280;5229;41.820;23.490;2023-03-11T04:13:30;88347.53;;;10.14;68.67
10366;BME280;5229;41.820;23.490;2023-03-11T04:15:57;88337.91;;;10.15;68.36
10366;BME280;5229;41.820;23.490;2023-03-11T04:18:23;88341.66;;;10.17;68.31
10366;BME280;5229;41.820;23.490;2023-03-11T04:20:50;88349.81;;;10.19;68.88
10366;BME280;5229;41.820;23.490;2023-03-11T04:23:17;88337.97;;;10.18;67.87
10366;BME280;5229;41.820;23.490;2023-03-11T04:25:44;88331.97;;;10.14;68.50
10366;BME280;5229;41.820;23.490;2023-03-11T04:28:12;88323.75;;;10.09;68.49
10366;BME280;5229;41.820;23.490;2023-03-11T04:30:39;88327.66;;;10.03;68.34
10366;BME280;5229;41.820;23.490;2023-03-11T04:33:06;88316.81;;;9.97;68.72
10366;BME280;5229;41.820;23.490;2023-03-11T04:35:33;88316.81;;;9.97;68.81
10366;BME280;5229;41.820;23.490;2023-03-11T04:37:59;88316.16;;;10.00;69.06
10366;BME280;5229;41.820;23.490;2023-03-11T04:40:26;88305.09;;;10.03;68.95
10366;BME280;5229;41.820;23.490;2023-03-11T04:42:53;88316.97;;;10.04;68.63
10366;BME280;5229;41.820;23.490;2023-03-11T04:45:21;88313.28;;;10.05;68.33
10366;BME280;5229;41.820;23.490;2023-03-11T04:47:48;88323.63;;;10.05;68.26
10366;BME280;5229;41.820;23.490;2023-03-11T04:50:16;88328.81;;;10.05;68.24
10366;BME280;5229;41.820;23.490;2023-03-11T04:52:43;88325.47;;;10.05;68.43
10366;BME280;5229;41.820;23.490;2023-03-11T04:55:10;88329.16;;;10.04;68.42
10366;BME280;5229;41.820;23.490;2023-03-11T04:57:39;88333.59;;;10.03;68.75
10366;BME280;5229;41.820;23.490;2023-03-11T05:00:08;88333.25;;;10.05;68.68
10366;BME280;5229;41.820;23.490;2023-03-11T05:02:38;88337.03;;;10.07;68.56
10366;BME280;5229;41.820;23.490;2023-03-11T05:05:06;88331.09;;;10.07;68.57
10366;BME280;5229;41.820;23.490;2023-03-11T05:07:34;88333.16;;;10.01;68.52
10366;BME280;5229;41.820;23.490;2023-03-11T05:10:01;88329.63;;;9.90;68.54
10366;BME280;5229;41.820;23.490;2023-03-11T05:12:28;88316.13;;;9.81;69.14
10366;BME280;5229;41.820;23.490;2023-03-11T05:14:55;88317.16;;;9.77;69.36
10366;BME280;5229;41.820;23.490;2023-03-11T05:17:22;88312.66;;;9.74;69.18
10366;BME280;5229;41.820;23.490;2023-03-11T05:19:51;88293.44;;;9.75;68.79
10366;BME280;5229;41.820;23.490;2023-03-11T05:22:19;88307.53;;;9.77;68.80
10366;BME280;5229;41.820;23.490;2023-03-11T05:24:46;88301.78;;;9.84;68.65
10366;BME280;5229;41.820;23.490;2023-03-11T05:27:13;88295.56;;;9.88;68.33
10366;BME280;5229;41.820;23.490;2023-03-11T05:29:42;88301.16;;;9.90;68.41
10366;BME280;5229;41.820;23.490;2023-03-11T05:32:09;88304.56;;;9.94;68.33
10366;BME280;5229;41.820;23.490;2023-03-11T05:34:36;88301.69;;;9.99;68.30
10366;BME280;5229;41.820;23.490;2023-03-11T05:37:04;88314.06;;;10.06;68.57
10366;BME280;5229;41.820;23.490;2023-03-11T05:39:32;88320.72;;;10.07;68.02
10366;BME280;5229;41.820;23.490;2023-03-11T05:41:59;88315.22;;;10.08;68.57
10366;BME280;5229;41.820;23.490;2023-03-11T05:44:25;88324.41;;;10.06;68.17
10366;BME280;5229;41.820;23.490;2023-03-11T05:46:52;88328.16;;;10.08;68.49
10366;BME280;5229;41.820;23.490;2023-03-11T05:49:19;88321.16;;;10.09;68.45
10366;BME280;5229;41.820;23.490;2023-03-11T05:51:46;88323.41;;;10.10;68.02
10366;BME280;5229;41.820;23.490;2023-03-11T05:54:15;88318.63;;;10.12;67.99
10366;BME280;5229;41.820;23.490;2023-03-11T05:56:43;88314.25;;;10.16;68.51
10366;BME280;5229;41.820;23.490;2023-03-11T05:59:10;88312.97;;;10.26;67.89
10366;BME280;5229;41.820;23.490;2023-03-11T06:01:38;88319.94;;;10.44;68.08
10366;BME280;5229;41.820;23.490;2023-03-11T06:04:05;88314.41;;;10.65;67.89
10366;BME280;5229;41.820;23.490;2023-03-11T06:06:32;88315.72;;;11.23;67.24
10366;BME280;5229;41.820;23.490;2023-03-11T06:08:58;88321.28;;;12.33;65.03
10366;BME280;5229;41.820;23.490;2023-03-11T06:11:27;88324.44;;;13.22;63.56
10366;BME280;5229;41.820;23.490;2023-03-11T06:13:55;88324.94;;;13.92;61.84
10366;BME280;5229;41.820;23.490;2023-03-11T06:16:22;88325.13;;;15.44;59.72
10366;BME280;5229;41.820;23.490;2023-03-11T06:18:50;88333.22;;;17.30;54.85
10366;BME280;5229;41.820;23.490;2023-03-11T06:21:18;88330.06;;;19.12;51.75
10366;BME280;5229;41.820;23.490;2023-03-11T06:23:45;88333.69;;;21.48;47.22
10366;BME280;5229;41.820;23.490;2023-03-11T06:26:14;88330.34;;;23.62;43.38
10366;BME280;5229;41.820;23.490;2023-03-11T06:28:43;88333.75;;;25.30;40.49
10366;BME280;5229;41.820;23.490;2023-03-11T06:31:12;88344.13;;;26.60;38.09
10366;BME280;5229;41.820;23.490;2023-03-11T06:33:40;88353.84;;;27.92;35.55
10366;BME280;5229;41.820;23.490;2023-03-11T06:36:07;88352.88;;;28.13;34.56
10366;BME280;5229;41.820;23.490;2023-03-11T06:38:34;88363.75;;;28.52;34.30
10366;BME280;5229;41.820;23.490;2023-03-11T06:41:02;88367.16;;;28.85;33.06
10366;BME280;5229;41.820;23.490;2023-03-11T06:43:30;88359.03;;;27.96;33.82
10366;BME280;5229;41.820;23.490;2023-03-11T06:45:58;88368.31;;;26.92;34.57
10366;BME280;5229;41.820;23.490;2023-03-11T06:48:25;88358.97;;;25.78;35.74
10366;BME280;5229;41.820;23.490;2023-03-11T06:50:53;88365.00;;;24.55;36.22
10366;BME280;5229;41.820;23.490;2023-03-11T06:53:21;88366.88;;;23.26;37.29
10366;BME280;5229;41.820;23.490;2023-03-11T06:55:57;88361.03;;;21.93;38.49
10366;BME280;5229;41.820;23.490;2023-03-11T06:58:25;88351.28;;;20.77;40.17
10366;BME280;5229;41.820;23.490;2023-03-11T07:00:52;88350.06;;;19.89;41.45
10366;BME280;5229;41.820;23.490;2023-03-11T07:03:20;88339.06;;;19.14;42.10
10366;BME280;5229;41.820;23.490;2023-03-11T07:05:49;88344.34;;;18.44;43.16
10366;BME280;5229;41.820;23.490;2023-03-11T07:08:16;88348.63;;;17.83;44.29
10366;BME280;5229;41.820;23.490;2023-03-11T07:10:43;88344.75;;;17.43;45.41
10366;BME280;5229;41.820;23.490;2023-03-11T07:13:11;88341.22;;;17.02;45.89
10366;BME280;5229;41.820;23.490;2023-03-11T07:15:37;88340.63;;;16.67;46.19
10366;BME280;5229;41.820;23.490;2023-03-11T07:18:04;88342.56;;;16.45;46.52
10366;BME280;5229;41.820;23.490;2023-03-11T07:20:32;88334.69;;;16.38;47.10
10366;BME280;5229;41.820;23.490;2023-03-11T07:22:59;88324.63;;;16.40;46.64
10366;BME280;5229;41.820;23.490;2023-03-11T07:25:26;88331.34;;;16.52;46.96
10366;BME280;5229;41.820;23.490;2023-03-11T07:27:53;88338.03;;;16.56;46.88
10366;BME280;5229;41.820;23.490;2023-03-11T07:30:19;88329.84;;;16.54;46.68
10366;BME280;5229;41.820;23.490;2023-03-11T07:32:46;88327.63;;;16.42;46.85
10366;BME280;5229;41.820;23.490;2023-03-11T07:35:13;88320.91;;;16.31;46.79
10366;BME280;5229;41.820;23.490;2023-03-11T07:37:41;88330.63;;;16.30;47.05
10366;BME280;5229;41.820;23.490;2023-03-11T07:40:09;88332.88;;;16.25;46.74
10366;BME280;5229;41.820;23.490;2023-03-11T07:42:36;88335.88;;;16.16;46.94
10366;BME280;5229;41.820;23.490;2023-03-11T07:45:04;88325.31;;;16.62;46.91
10366;BME280;5229;41.820;23.490;2023-03-11T07:47:30;88323.72;;;17.58;45.14
10366;BME280;5229;41.820;23.490;2023-03-11T07:49:57;88313.22;;;18.02;44.39
10366;BME280;5229;41.820;23.490;2023-03-11T07:52:24;88311.44;;;18.36;43.49
10366;BME280;5229;41.820;23.490;2023-03-11T07:54:52;88306.09;;;19.10;42.40
10366;BME280;5229;41.820;23.490;2023-03-11T07:57:19;88298.56;;;20.38;40.30
10366;BME280;5229;41.820;23.490;2023-03-11T07:59:46;88303.09;;;22.18;37.50
10366;BME280;5229;41.820;23.490;2023-03-11T08:02:13;88284.59;;;23.08;36.67
10366;BME280;5229;41.820;23.490;2023-03-11T08:04:40;88280.06;;;23.74;35.68
10366;BME280;5229;41.820;23.490;2023-03-11T08:07:06;88288.84;;;25.45;33.45
10366;BME280;5229;41.820;23.490;2023-03-11T08:09:33;88289.69;;;26.34;31.78
10366;BME280;5229;41.820;23.490;2023-03-11T08:12:02;88290.22;;;27.58;30.03
10366;BME280;5229;41.820;23.490;2023-03-11T08:14:28;88290.47;;;28.85;28.57
10366;BME280;5229;41.820;23.490;2023-03-11T08:16:55;88290.63;;;29.67;27.81
10366;BME280;5229;41.820;23.490;2023-03-11T08:19:22;88301.44;;;30.16;26.92
10366;BME280;5229;41.820;23.490;2023-03-11T08:21:49;88303.22;;;30.53;26.37
10366;BME280;5229;41.820;23.490;2023-03-11T08:24:15;88308.97;;;30.32;25.94
10366;BME280;5229;41.820;23.490;2023-03-11T08:26:42;88297.09;;;29.89;26.32
10366;BME280;5229;41.820;23.490;2023-03-11T08:29:11;88294.69;;;29.91;26.19
10366;BME280;5229;41.820;23.490;2023-03-11T08:31:37;88304.56;;;30.00;25.59
10366;BME280;5229;41.820;23.490;2023-03-11T08:34:06;88298.09;;;29.39;25.90
10366;BME280;5229;41.820;23.490;2023-03-11T08:36:34;88295.72;;;28.80;26.05
10366;BME280;5229;41.820;23.490;2023-03-11T08:39:01;88291.78;;;28.34;26.49
10366;BME280;5229;41.820;23.490;2023-03-11T08:41:28;88294.13;;;28.41;26.45
10366;BME280;5229;41.820;23.490;2023-03-11T08:43:55;88285.56;;;28.37;25.92
10366;BME280;5229;41.820;23.490;2023-03-11T08:46:26;88278.97;;;28.14;26.36
10366;BME280;5229;41.820;23.490;2023-03-11T08:48:53;88277.25;;;28.02;26.80
10366;BME280;5229;41.820;23.490;2023-03-11T08:51:20;88280.81;;;28.32;25.98
10366;BME280;5229;41.820;23.490;2023-03-11T08:53:49;88279.31;;;28.40;25.57
10366;BME280;5229;41.820;23.490;2023-03-11T08:56:16;88268.28;;;28.23;25.90
10366;BME280;5229;41.820;23.490;2023-03-11T08:58:43;88279.16;;;28.11;25.77
10366;BME280;5229;41.820;23.490;2023-03-11T09:01:11;88275.72;;;27.59;26.35
10366;BME280;5229;41.820;23.490;2023-03-11T09:03:39;88266.88;;;27.17;26.79
10366;BME280;5229;41.820;23.490;2023-03-11T09:06:09;88265.41;;;26.98;27.06
10366;BME280;5229;41.820;23.490;2023-03-11T09:08:37;88259.16;;;26.56;26.62
10366;BME280;5229;41.820;23.490;2023-03-11T09:11:04;88254.59;;;25.99;27.04
10366;BME280;5229;41.820;23.490;2023-03-11T09:13:31;88245.16;;;25.37;27.70
10366;BME280;5229;41.820;23.490;2023-03-11T09:15:58;88247.81;;;24.94;28.08
10366;BME280;5229;41.820;23.490;2023-03-11T09:18:25;88254.44;;;25.20;27.65
10366;BME280;5229;41.820;23.490;2023-03-11T09:20:55;88239.25;;;26.61;26.99
10366;BME280;5229;41.820;23.490;2023-03-11T09:23:22;88236.78;;;28.13;24.75
10366;BME280;5229;41.820;23.490;2023-03-11T09:25:49;88237.13;;;29.23;23.63
10366;BME280;5229;41.820;23.490;2023-03-11T09:28:16;88248.59;;;30.45;22.39
10366;BME280;5229;41.820;23.490;2023-03-11T09:30:43;88244.00;;;31.46;21.30
10366;BME280;5229;41.820;23.490;2023-03-11T09:33:09;88246.44;;;32.57;20.59
10366;BME280;5229;41.820;23.490;2023-03-11T09:35:37;88247.63;;;33.41;19.72
10366;BME280;5229;41.820;23.490;2023-03-11T09:38:05;88247.56;;;34.21;18.89
10366;BME280;5229;41.820;23.490;2023-03-11T09:40:43;88246.53;;;33.97;19.26
10366;BME280;5229;41.820;23.490;2023-03-11T09:43:17;88252.47;;;34.34;18.78
10366;BME280;5229;41.820;23.490;2023-03-11T09:45:52;88263.16;;;35.00;18.53
10366;BME280;5229;41.820;23.490;2023-03-11T09:48:24;88273.25;;;35.67;17.02
10366;BME280;5229;41.820;23.490;2023-03-11T09:50:57;88267.56;;;36.28;17.29
10366;BME280;5229;41.820;23.490;2023-03-11T09:53:34;88262.09;;;36.69;16.86
10366;BME280;5229;41.820;23.490;2023-03-11T09:56:06;88260.66;;;36.92;16.32
10366;BME280;5229;41.820;23.490;2023-03-11T09:58:36;88261.13;;;36.31;16.11
10366;BME280;5229;41.820;23.490;2023-03-11T10:01:13;88260.19;;;35.77;16.97
10366;BME280;5229;41.820;23.490;2023-03-11T10:03:42;88249.16;;;35.23;17.90
10366;BME280;5229;41.820;23.490;2023-03-11T10:06:14;88254.63;;;34.24;17.58
10366;BME280;5229;41.820;23.490;2023-03-11T10:08:46;88249.97;;;33.22;18.34
10366;BME280;5229;41.820;23.490;2023-03-11T10:11:36;88245.22;;;32.95;18.37
10366;BME280;5229;41.820;23.490;2023-03-11T10:14:18;88251.84;;;33.64;17.55
10366;BME280;5229;41.820;23.490;2023-03-11T10:16:55;88255.00;;;33.57;17.12
10366;BME280;5229;41.820;23.490;2023-03-11T10:19:33;88240.84;;;33.73;17.36
10366;BME280;5229;41.820;23.490;2023-03-11T10:22:09;88250.44;;;33.85;16.88
10366;BME280;5229;41.820;23.490;2023-03-11T10:24:49;88242.28;;;32.98;17.37
10366;BME280;5229;41.820;23.490;2023-03-11T10:27:23;88251.59;;;31.73;17.47
10366;BME280;5229;41.820;23.490;2023-03-11T10:29:59;88242.81;;;30.67;18.37
10366;BME280;5229;41.820;23.490;2023-03-11T10:32:33;88254.22;;;29.69;18.65
10366;BME280;5229;41.820;23.490;2023-03-11T10:35:10;88247.00;;;28.70;19.85
10366;BME280;5229;41.820;23.490;2023-03-11T10:37:43;88238.94;;;27.90;20.10
10366;BME280;5229;41.820;23.490;2023-03-11T10:40:20;88245.28;;;27.42;20.40
10366;BME280;5229;41.820;23.490;2023-03-11T10:42:48;88239.38;;;27.11;20.69
10366;BME280;5229;41.820;23.490;2023-03-11T10:45:17;88238.16;;;26.58;20.68
10366;BME280;5229;41.820;23.490;2023-03-11T10:47:47;88235.34;;;25.86;21.46
10366;BME280;5229;41.820;23.490;2023-03-11T10:50:16;88228.34;;;25.40;21.48
10366;BME280;5229;41.820;23.490;2023-03-11T10:53:03;88225.91;;;25.02;22.45
10366;BME280;5229;41.820;23.490;2023-03-11T10:55:31;88227.69;;;24.84;22.39
10366;BME280;5229;41.820;23.490;2023-03-11T10:58:06;88232.28;;;24.83;22.98
10366;BME280;5229;41.820;23.490;2023-03-11T11:00:37;88235.78;;;25.02;22.62
10366;BME280;5229;41.820;23.490;2023-03-11T11:03:04;88226.22;;;24.83;22.91
10366;BME280;5229;41.820;23.490;2023-03-11T11:05:38;88227.69;;;24.62;22.90
10366;BME280;5229;41.820;23.490;2023-03-11T11:08:06;88218.16;;;24.52;23.16
10366;BME280;5229;41.820;23.490;2023-03-11T11:10:35;88234.25;;;24.24;23.88
10366;BME280;5229;41.820;23.490;2023-03-11T11:13:16;88242.13;;;23.90;25.54
10366;BME280;5229;41.820;23.490;2023-03-11T11:15:54;88247.63;;;23.45;26.94
10366;BME280;5229;41.820;23.490;2023-03-11T11:18:23;88244.91;;;22.95;28.11
10366;BME280;5229;41.820;23.490;2023-03-11T11:20:57;88245.13;;;22.43;28.95
10366;BME280;5229;41.820;23.490;2023-03-11T11:23:31;88249.97;;;22.00;29.51
10366;BME280;5229;41.820;23.490;2023-03-11T11:26:01;88244.66;;;21.52;30.28
10366;BME280;5229;41.820;23.490;2023-03-11T11:28:30;88245.63;;;21.10;31.07
10366;BME280;5229;41.820;23.490;2023-03-11T11:30:59;88246.44;;;20.68;31.58
10366;BME280;5229;41.820;23.490;2023-03-11T11:33:28;88245.03;;;20.21;32.94
10366;BME280;5229;41.820;23.490;2023-03-11T11:35:58;88246.44;;;19.83;33.51
10366;BME280;5229;41.820;23.490;2023-03-11T11:38:28;88245.75;;;19.56;34.10
10366;BME280;5229;41.820;23.490;2023-03-11T11:40:57;88255.28;;;19.20;34.71
10366;BME280;5229;41.820;23.490;2023-03-11T11:43:35;88264.19;;;18.69;36.01
10366;BME280;5229;41.820;23.490;2023-03-11T11:46:17;88253.97;;;18.08;37.45
10366;BME280;5229;41.820;23.490;2023-03-11T11:48:50;88248.41;;;17.62;39.06
10366;BME280;5229;41.820;23.490;2023-03-11T11:51:23;88250.88;;;17.28;39.27
10366;BME280;5229;41.820;23.490;2023-03-11T11:53:56;88229.38;;;16.99;39.27
10366;BME280;5229;41.820;23.490;2023-03-11T11:56:25;88226.09;;;16.85;39.24
10366;BME280;5229;41.820;23.490;2023-03-11T11:58:53;88224.97;;;16.86;39.56
10366;BME280;5229;41.820;23.490;2023-03-11T12:01:30;88213.69;;;16.92;39.60
10366;BME280;5229;41.820;23.490;2023-03-11T12:04:17;88221.16;;;16.97;38.93
10366;BME280;5229;41.820;23.490;2023-03-11T12:06:51;88227.03;;;17.12;38.61
10366;BME280;5229;41.820;23.490;2023-03-11T12:09:24;88220.97;;;17.25;38.63
10366;BME280;5229;41.820;23.490;2023-03-11T12:11:58;88228.34;;;17.37;38.01
10366;BME280;5229;41.820;23.490;2023-03-11T12:14:34;88223.47;;;17.39;37.67
10366;BME280;5229;41.820;23.490;2023-03-11T12:17:07;88222.75;;;17.35;37.41
10366;BME280;5229;41.820;23.490;2023-03-11T12:19:41;88227.63;;;17.33;37.72
10366;BME280;5229;41.820;23.490;2023-03-11T12:25:31;88244.25;;;17.13;37.78
10366;BME280;5229;41.820;23.490;2023-03-11T12:28:08;88240.22;;;17.01;38.22
10366;BME280;5229;41.820;23.490;2023-03-11T12:30:43;88241.06;;;16.88;37.59
10366;BME280;5229;41.820;23.490;2023-03-11T12:33:16;88244.19;;;16.58;37.95
10366;BME280;5229;41.820;23.490;2023-03-11T12:35:49;88245.06;;;16.31;38.19
10366;BME280;5229;41.820;23.490;2023-03-11T12:38:26;88245.47;;;16.12;39.01
10366;BME280;5229;41.820;23.490;2023-03-11T12:41:02;88252.63;;;15.97;38.33
10366;BME280;5229;41.820;23.490;2023-03-11T12:43:58;88244.81;;;15.83;38.42
10366;BME280;5229;41.820;23.490;2023-03-11T12:47:00;88242.59;;;15.64;39.33
10366;BME280;5229;41.820;23.490;2023-03-11T12:49:29;88248.59;;;15.54;39.84
10366;BME280;5229;41.820;23.490;2023-03-11T12:52:00;88233.69;;;15.51;40.10
10366;BME280;5229;41.820;23.490;2023-03-11T12:54:29;88237.75;;;15.59;40.78
10366;BME280;5229;41.820;23.490;2023-03-11T12:56:58;88232.16;;;15.68;40.74
10366;BME280;5229;41.820;23.490;2023-03-11T12:59:52;88227.28;;;15.70;40.30
10366;BME280;5229;41.820;23.490;2023-03-11T13:05:25;88232.81;;;15.96;39.61
10366;BME280;5229;41.820;23.490;2023-03-11T13:07:55;88227.56;;;16.03;40.00
10366;BME280;5229;41.820;23.490;2023-03-11T13:10:35;88228.28;;;16.07;39.21
10366;BME280;5229;41.820;23.490;2023-03-11T13:13:29;88224.19;;;16.06;39.19
10366;BME280;5229;41.820;23.490;2023-03-11T13:15:57;88220.47;;;16.07;39.03
10366;BME280;5229;41.820;23.490;2023-03-11T13:18:47;88209.66;;;16.05;39.30